createdAt,value
2022-12-13T00:00:14.845Z,99864.81
2022-12-13T00:02:17.620Z,99858.03
2022-12-13T00:04:23.139Z,99854.41
2022-12-13T00:06:26.364Z,99844.09
2022-12-13T00:08:29.958Z,99851.28
2022-12-13T00:10:32.730Z,99860.47
2022-12-13T00:12:35.454Z,99857.25
2022-12-13T00:14:38.089Z,99845.47
2022-12-13T00:16:41.288Z,99863.13
2022-12-13T00:18:47.194Z,99853.94
2022-12-13T00:20:49.856Z,99858.88
2022-12-13T00:22:53.119Z,99857.03
2022-12-13T00:24:56.879Z,99858.25
2022-12-13T00:26:59.540Z,99854.56
2022-12-13T00:29:05.251Z,99855.97
2022-12-13T00:31:53.005Z,99864.97
2022-12-13T00:33:31.708Z,99876.25
2022-12-13T00:35:39.918Z,99862.09
2022-12-13T00:37:42.681Z,99865.97
2022-12-13T00:39:45.475Z,99862.50
2022-12-13T00:41:48.208Z,99866.53
2022-12-13T00:43:50.854Z,99867.28
2022-12-13T00:45:53.505Z,99855.63
2022-12-13T00:47:56.099Z,99869.75
2022-12-13T00:49:58.765Z,99885.31
2022-12-13T00:52:01.428Z,99876.19
2022-12-13T00:54:04.380Z,99864.09
2022-12-13T00:56:12.955Z,99868.41
2022-12-13T00:58:15.571Z,99855.66
2022-12-13T01:00:18.831Z,99873.84
2022-12-13T01:02:21.607Z,99867.88
2022-12-13T01:04:24.320Z,99848.16
2022-12-13T01:06:34.232Z,99851.53
2022-12-13T01:08:37.402Z,99874.47
2022-12-13T01:10:44.343Z,99876.50
2022-12-13T01:12:47.445Z,99884.22
2022-12-13T01:14:55.802Z,99877.59
2022-12-13T01:17:00.238Z,99879.06
2022-12-13T01:19:03.003Z,99879.88
2022-12-13T01:21:13.385Z,99884.31
2022-12-13T01:23:17.233Z,99887.16
2022-12-13T01:25:19.990Z,99882.75
2022-12-13T01:27:22.712Z,99878.63
2022-12-13T01:29:27.413Z,99875.72
2022-12-13T01:31:30.100Z,99889.44
2022-12-13T01:33:33.656Z,99877.16
2022-12-13T01:35:36.313Z,99877.59
2022-12-13T01:37:39.065Z,99885.41
2022-12-13T01:39:41.742Z,99879.63
2022-12-13T01:41:46.263Z,99886.25
2022-12-13T01:43:48.898Z,99883.13
2022-12-13T01:45:52.008Z,99896.44
2022-12-13T01:48:07.787Z,99899.91
2022-12-13T01:50:17.346Z,99890.56
2022-12-13T01:52:20.160Z,99895.50
2022-12-13T01:54:33.983Z,99891.59
2022-12-13T01:56:43.122Z,99899.75
2022-12-13T01:58:48.286Z,99892.78
2022-12-13T02:00:51.688Z,99890.38
2022-12-13T02:02:58.349Z,99887.06
2022-12-13T02:05:13.831Z,99895.13
2022-12-13T02:07:23.303Z,99895.34
2022-12-13T02:09:27.228Z,99894.69
2022-12-13T02:11:30.658Z,99890.09
2022-12-13T02:13:33.373Z,99896.34
2022-12-13T02:15:51.753Z,99887.16
2022-12-13T02:18:06.509Z,99872.94
2022-12-13T02:20:21.654Z,99878.44
2022-12-13T02:23:02.435Z,99883.78
2022-12-13T02:25:14.328Z,99885.78
2022-12-13T02:28:00.958Z,99878.06
2022-12-13T02:30:15.691Z,99862.75
2022-12-13T02:32:36.922Z,99885.06
2022-12-13T02:34:44.149Z,99888.00
2022-12-13T02:37:18.222Z,99894.69
2022-12-13T02:39:31.127Z,99898.00
2022-12-13T02:41:39.795Z,99899.38
2022-12-13T02:43:48.078Z,99901.22
2022-12-13T02:46:02.369Z,99897.56
2022-12-13T02:48:08.395Z,99902.13
2022-12-13T02:50:13.611Z,99895.97
2022-12-13T02:52:22.377Z,99896.44
2022-12-13T02:54:25.583Z,99902.59
2022-12-13T02:56:28.340Z,99904.78
2022-12-13T02:58:35.212Z,99905.81
2022-12-13T03:00:49.279Z,99908.25
2022-12-13T03:03:01.000Z,99913.88
2022-12-13T03:05:29.111Z,99904.69
2022-12-13T03:07:49.461Z,99911.31
2022-12-13T03:09:55.059Z,99913.59
2022-12-13T03:12:38.842Z,99903.97
2022-12-13T03:15:03.684Z,99896.88
2022-12-13T03:17:09.209Z,99906.25
2022-12-13T03:19:13.298Z,99910.22
2022-12-13T03:21:16.257Z,99905.34
2022-12-13T03:23:20.263Z,99902.13
2022-12-13T03:25:31.267Z,99908.81
2022-12-13T03:27:35.468Z,99904.50
2022-12-13T03:29:38.083Z,99912.50
2022-12-13T03:31:40.893Z,99913.88
2022-12-13T03:33:43.621Z,99905.22
2022-12-13T03:35:46.988Z,99911.41
2022-12-13T03:37:50.160Z,99915.59
2022-12-13T03:39:52.958Z,99916.63
2022-12-13T03:41:55.612Z,99911.19
2022-12-13T03:44:05.565Z,99922.22
2022-12-13T03:46:10.140Z,99917.56
2022-12-13T03:48:12.841Z,99899.91
2022-12-13T03:50:26.576Z,99915.81
2022-12-13T03:52:29.820Z,99912.88
2022-12-13T03:54:32.484Z,99914.59
2022-12-13T03:56:35.162Z,99916.44
2022-12-13T03:58:38.449Z,99917.91
2022-12-13T04:00:41.252Z,99918.19
2022-12-13T04:02:43.946Z,99912.88
2022-12-13T04:04:46.677Z,99924.22
2022-12-13T04:06:49.309Z,99914.78
2022-12-13T04:08:52.995Z,99918.47
2022-12-13T04:10:55.720Z,99915.81
2022-12-13T04:13:17.062Z,99924.78
2022-12-13T04:15:19.828Z,99934.25
2022-12-13T04:17:22.505Z,99924.06
2022-12-13T04:19:25.170Z,99926.53
2022-12-13T04:21:27.861Z,99927.53
2022-12-13T04:23:30.666Z,99932.22
2022-12-13T04:25:33.309Z,99937.09
2022-12-13T04:27:38.294Z,99942.16
2022-12-13T04:29:40.993Z,99936.63
2022-12-13T04:31:43.802Z,99936.63
2022-12-13T04:33:46.595Z,99937.81
2022-12-13T04:35:50.021Z,99932.31
2022-12-13T04:37:53.796Z,99946.38
2022-12-13T04:40:00.885Z,99936.38
2022-12-13T04:42:04.873Z,99934.06
2022-12-13T04:44:27.952Z,99939.31
2022-12-13T04:46:33.359Z,99933.59
2022-12-13T04:48:36.062Z,99947.66
2022-12-13T04:50:38.839Z,99946.19
2022-12-13T04:52:41.516Z,99932.03
2022-12-13T04:54:44.152Z,99946.53
2022-12-13T04:56:46.985Z,99928.28
2022-12-13T04:58:49.648Z,99937.34
2022-12-13T05:00:52.312Z,99941.31
2022-12-13T05:02:55.107Z,99938.09
2022-12-13T05:04:57.856Z,99943.88
2022-12-13T05:07:01.562Z,99954.00
2022-12-13T05:09:04.603Z,99963.63
2022-12-13T05:11:14.245Z,99955.34
2022-12-13T05:13:17.580Z,99946.41
2022-12-13T05:15:20.297Z,99952.13
2022-12-13T05:17:23.047Z,99946.41
2022-12-13T05:19:30.696Z,99958.81
2022-12-13T05:21:35.190Z,99954.19
2022-12-13T05:23:38.957Z,99967.75
2022-12-13T05:25:42.047Z,99962.81
2022-12-13T05:27:44.857Z,99964.50
2022-12-13T05:29:47.571Z,99966.50
2022-12-13T05:31:51.338Z,99969.41
2022-12-13T05:33:55.310Z,99972.88
2022-12-13T05:36:05.601Z,99976.97
2022-12-13T05:38:08.242Z,99973.69
2022-12-13T05:40:11.165Z,99967.50
2022-12-13T05:42:13.798Z,99972.22
2022-12-13T05:44:16.516Z,99981.09
2022-12-13T05:46:19.697Z,99979.00
2022-12-13T05:48:24.216Z,99977.34
2022-12-13T05:50:27.536Z,99976.72
2022-12-13T05:52:30.774Z,99982.94
2022-12-13T05:54:34.073Z,99988.47
2022-12-13T05:56:36.889Z,99983.75
2022-12-13T05:58:40.837Z,99991.59
2022-12-13T06:00:44.037Z,99991.78
2022-12-13T06:02:48.118Z,99987.66
2022-12-13T06:04:50.817Z,99995.56
2022-12-13T06:06:53.489Z,100002.19
2022-12-13T06:08:56.037Z,99999.78
2022-12-13T06:11:11.473Z,100000.44
2022-12-13T06:13:21.776Z,99998.28
2022-12-13T06:15:35.118Z,99988.25
2022-12-13T06:17:38.172Z,100008.28
2022-12-13T06:19:40.831Z,100001.19
2022-12-13T06:21:46.314Z,99996.97
2022-12-13T06:23:49.278Z,100014.75
2022-12-13T06:25:51.972Z,100016.38
2022-12-13T06:27:54.659Z,100016.97
2022-12-13T06:30:02.186Z,100020.97
2022-12-13T06:32:06.721Z,100030.84
2022-12-13T06:34:14.444Z,100032.16
2022-12-13T06:36:17.849Z,100039.50
2022-12-13T06:38:22.124Z,100023.69
2022-12-13T06:40:34.759Z,100031.00
2022-12-13T06:42:37.383Z,100042.22
2022-12-13T06:44:41.959Z,100056.63
2022-12-13T06:46:45.310Z,100059.13
2022-12-13T06:48:48.115Z,100071.78
2022-12-13T06:50:50.628Z,100068.44
2022-12-13T06:52:53.134Z,100059.66
2022-12-13T06:54:59.862Z,100081.06
2022-12-13T06:57:02.596Z,100075.16
2022-12-13T06:59:05.161Z,100075.00
2022-12-13T07:01:15.121Z,100069.81
2022-12-13T07:03:26.621Z,100074.13
2022-12-13T07:05:29.188Z,100063.22
2022-12-13T07:07:31.807Z,100059.34
2022-12-13T07:09:34.633Z,100064.94
2022-12-13T07:11:37.278Z,100070.53
2022-12-13T07:13:39.823Z,100059.94
2022-12-13T07:15:42.439Z,100060.75
2022-12-13T07:17:45.097Z,100065.69
2022-12-13T07:19:48.037Z,100067.38
2022-12-13T07:21:50.996Z,100068.81
2022-12-13T07:23:54.868Z,100070.34
2022-12-13T07:25:58.219Z,100077.56
2022-12-13T07:28:05.498Z,100069.59
2022-12-13T07:30:08.644Z,100065.97
2022-12-13T07:32:11.597Z,100078.16
2022-12-13T07:34:15.756Z,100076.13
2022-12-13T07:36:21.386Z,100087.84
2022-12-13T07:38:23.880Z,100086.50
2022-12-13T07:40:26.731Z,100095.56
2022-12-13T07:42:29.267Z,100084.09
2022-12-13T07:44:31.883Z,100094.41
2022-12-13T07:46:34.544Z,100085.16
2022-12-13T07:48:37.380Z,100090.50
2022-12-13T07:50:40.026Z,100081.28
2022-12-13T07:52:42.617Z,100098.94
2022-12-13T07:54:45.138Z,100079.31
2022-12-13T07:56:47.736Z,100080.78
2022-12-13T07:58:50.321Z,100110.56
2022-12-13T08:00:52.925Z,100094.28
2022-12-13T08:02:55.486Z,100086.06
2022-12-13T08:04:58.157Z,100082.78
2022-12-13T08:07:20.716Z,100083.50
2022-12-13T08:09:23.698Z,100081.13
2022-12-13T08:11:26.296Z,100089.59
2022-12-13T08:13:28.840Z,100089.63
2022-12-13T08:15:31.910Z,100087.00
2022-12-13T08:17:34.510Z,100095.28
2022-12-13T08:19:37.265Z,100104.56
2022-12-13T08:21:58.784Z,100100.31
2022-12-13T08:24:04.173Z,100099.09
2022-12-13T08:26:07.110Z,100107.97
2022-12-13T08:28:11.116Z,100108.63
2022-12-13T08:30:32.918Z,100104.97
2022-12-13T08:32:46.668Z,100104.56
2022-12-13T08:34:50.061Z,100111.56
2022-12-13T08:36:52.622Z,100108.06
2022-12-13T08:39:04.904Z,100113.03
2022-12-13T08:41:09.141Z,100124.38
2022-12-13T08:43:11.871Z,100122.72
2022-12-13T08:45:15.017Z,100112.25
2022-12-13T08:47:24.690Z,100115.53
2022-12-13T08:49:28.842Z,100115.56
2022-12-13T08:51:35.523Z,100119.91
2022-12-13T08:53:40.967Z,100121.34
2022-12-13T08:55:45.056Z,100122.59
2022-12-13T08:57:47.927Z,100105.34
2022-12-13T08:59:50.559Z,100119.13
2022-12-13T09:01:55.190Z,100109.28
2022-12-13T09:03:59.216Z,100112.75
2022-12-13T09:06:13.932Z,100104.13
2022-12-13T09:08:23.476Z,100107.06
2022-12-13T09:10:28.040Z,100113.63
2022-12-13T09:12:31.255Z,100110.16
2022-12-13T09:14:34.497Z,100116.13
2022-12-13T09:16:37.440Z,100105.81
2022-12-13T09:18:40.245Z,100116.34
2022-12-13T09:20:43.047Z,100116.53
2022-12-13T09:22:45.873Z,100109.75
2022-12-13T09:24:50.149Z,100107.88
2022-12-13T09:26:57.236Z,100120.25
2022-12-13T09:29:00.344Z,100117.78
2022-12-13T09:31:18.292Z,100112.41
2022-12-13T09:33:30.552Z,100121.88
2022-12-13T09:35:33.991Z,100118.00
2022-12-13T09:37:41.191Z,100116.94
2022-12-13T09:39:47.893Z,100126.41
2022-12-13T09:42:01.101Z,100129.69
2022-12-13T09:44:33.023Z,100126.41
2022-12-13T09:46:45.136Z,100126.19
2022-12-13T09:48:48.825Z,100120.81
2022-12-13T09:51:16.056Z,100129.69
2022-12-13T09:53:21.086Z,100123.53
2022-12-13T09:55:44.516Z,100123.97
2022-12-13T09:57:48.174Z,100127.22
2022-12-13T09:59:54.682Z,100140.25
2022-12-13T10:02:15.495Z,100139.22
2022-12-13T10:04:18.450Z,100142.09
2022-12-13T10:06:25.429Z,100145.41
2022-12-13T10:08:41.027Z,100147.91
2022-12-13T10:10:44.359Z,100143.97
2022-12-13T10:12:55.741Z,100142.13
2022-12-13T10:15:02.675Z,100148.72
2022-12-13T10:17:13.925Z,100156.13
2022-12-13T10:19:28.900Z,100157.38
2022-12-13T10:21:40.320Z,100142.91
2022-12-13T10:24:22.408Z,100138.41
2022-12-13T10:26:14.752Z,100134.06
2022-12-13T10:28:36.090Z,100141.28
2022-12-13T10:30:43.621Z,100131.78
2022-12-13T10:33:04.731Z,100136.53
2022-12-13T10:35:25.942Z,100135.50
2022-12-13T10:37:32.212Z,100129.47
2022-12-13T10:39:40.864Z,100142.69
2022-12-13T10:41:43.563Z,100143.91
2022-12-13T10:43:46.204Z,100137.72
2022-12-13T10:45:58.117Z,100131.75
2022-12-13T10:48:04.213Z,100129.88
2022-12-13T10:50:28.954Z,100131.28
2022-12-13T10:52:48.218Z,100126.13
2022-12-13T10:54:51.925Z,100120.16
2022-12-13T10:57:11.573Z,100132.31
2022-12-13T10:59:27.624Z,100126.50
2022-12-13T11:01:38.284Z,100125.91
2022-12-13T11:03:40.941Z,100128.97
2022-12-13T11:05:45.788Z,100115.81
2022-12-13T11:07:50.688Z,100115.19
2022-12-13T11:09:53.939Z,100122.16
2022-12-13T11:12:00.578Z,100118.91
2022-12-13T11:14:03.895Z,100108.75
2022-12-13T11:16:30.086Z,100117.19
2022-12-13T11:18:38.953Z,100115.13
2022-12-13T11:20:59.858Z,100115.94
2022-12-13T11:23:37.283Z,100120.47
2022-12-13T11:25:41.876Z,100101.94
2022-12-13T11:28:37.317Z,100107.09
2022-12-13T11:30:41.199Z,100109.13
2022-12-13T11:32:58.758Z,100098.41
2022-12-13T11:35:25.218Z,100108.19
2022-12-13T11:37:31.090Z,100107.94
2022-12-13T11:39:41.155Z,100110.00
2022-12-13T11:41:49.544Z,100112.47
2022-12-13T11:44:21.585Z,100120.22
2022-12-13T11:46:41.942Z,100116.75
2022-12-13T11:48:51.085Z,100121.84
2022-12-13T11:50:56.799Z,100124.47
2022-12-13T11:53:10.853Z,100119.69
2022-12-13T11:55:34.010Z,100116.84
2022-12-13T11:57:48.315Z,100122.59
2022-12-13T12:00:02.459Z,100116.84
2022-12-13T12:02:18.602Z,100120.69
2022-12-13T12:04:29.644Z,100117.94
2022-12-13T12:07:31.329Z,100130.72
2022-12-13T12:09:36.684Z,100126.53
2022-12-13T12:12:00.270Z,100132.72
2022-12-13T12:14:28.206Z,100139.09
2022-12-13T12:16:57.343Z,100140.88
2022-12-13T12:19:01.427Z,100131.81
2022-12-13T12:21:37.281Z,100141.75
2022-12-13T12:24:06.697Z,100133.63
2022-12-13T12:26:17.923Z,100135.94
2022-12-13T12:28:26.759Z,100154.75
2022-12-13T12:30:54.054Z,100144.97
2022-12-13T12:33:15.906Z,100155.91
2022-12-13T12:35:23.251Z,100146.19
2022-12-13T12:37:39.614Z,100149.81
2022-12-13T12:40:20.457Z,100155.50
2022-12-13T12:43:14.467Z,100150.75
2022-12-13T12:50:57.003Z,100157.03
2022-12-13T12:53:32.608Z,100144.25
2022-12-13T12:56:20.131Z,100146.88
2022-12-13T12:58:30.937Z,100140.97
2022-12-13T13:00:53.022Z,100137.50
2022-12-13T13:03:06.819Z,100140.97
2022-12-13T13:05:24.860Z,100146.88
2022-12-13T13:07:39.639Z,100135.84
2022-12-13T13:09:43.806Z,100140.78
2022-12-13T13:11:49.650Z,100144.38
2022-12-13T13:14:39.022Z,100132.72
2022-12-13T13:16:42.236Z,100132.34
2022-12-13T13:18:53.188Z,100144.22
2022-12-13T13:21:35.001Z,100139.13
2022-12-13T13:23:41.155Z,100143.44
2022-12-13T13:28:22.437Z,100146.28
2022-12-13T13:30:26.069Z,100146.56
2022-12-13T13:32:31.413Z,100146.38
2022-12-13T13:34:36.838Z,100150.03
2022-12-13T13:36:39.525Z,100147.56
2022-12-13T13:38:53.394Z,100148.41
2022-12-13T13:40:56.009Z,100155.19
2022-12-13T13:43:14.016Z,100160.16
2022-12-13T13:45:23.840Z,100155.03
2022-12-13T13:47:39.269Z,100148.47
2022-12-13T13:50:22.299Z,100155.03
2022-12-13T13:52:27.472Z,100148.34
2022-12-13T13:54:49.013Z,100151.19
2022-12-13T13:57:09.449Z,100147.13
2022-12-13T13:59:52.498Z,100146.19
2022-12-13T14:02:24.589Z,100153.91
2022-12-13T14:04:40.777Z,100154.28
2022-12-13T14:07:00.854Z,100149.09
2022-12-13T14:09:39.239Z,100159.22
2022-12-13T14:12:17.064Z,100157.88
2022-12-13T14:14:38.620Z,100157.41
2022-12-13T14:16:57.327Z,100152.53
2022-12-13T14:19:30.631Z,100146.94
2022-12-13T14:21:54.501Z,100150.03
2022-12-13T14:24:27.342Z,100153.25
2022-12-13T14:26:51.630Z,100156.31
2022-12-13T14:28:59.492Z,100152.63
2022-12-13T14:31:02.404Z,100155.03
2022-12-13T14:33:05.566Z,100156.78
2022-12-13T14:35:24.731Z,100154.97
2022-12-13T14:37:32.305Z,100150.09
2022-12-13T14:39:36.327Z,100151.94
2022-12-13T14:41:50.633Z,100148.50
2022-12-13T14:44:23.064Z,100149.91
2022-12-13T14:46:25.837Z,100155.34
2022-12-13T14:48:34.411Z,100164.16
2022-12-13T14:50:38.251Z,100163.94
2022-12-13T14:52:41.277Z,100165.03
2022-12-13T14:54:49.475Z,100164.94
2022-12-13T14:57:04.618Z,100172.16
2022-12-13T14:59:13.483Z,100168.56
2022-12-13T15:01:29.246Z,100167.81
2022-12-13T15:03:32.705Z,100169.50
2022-12-13T15:05:50.518Z,100164.63
2022-12-13T15:07:53.766Z,100146.53
2022-12-13T15:09:59.758Z,100155.16
2022-12-13T15:12:24.891Z,100165.16
2022-12-13T15:14:28.325Z,100161.34
2022-12-13T15:16:31.060Z,100154.09
2022-12-13T15:18:34.900Z,100152.66
2022-12-13T15:20:42.060Z,100151.56
2022-12-13T15:22:45.274Z,100148.94
2022-12-13T15:24:49.167Z,100144.47
2022-12-13T15:26:52.087Z,100146.41
2022-12-13T15:28:57.625Z,100152.13
2022-12-13T15:31:01.802Z,100148.34
2022-12-13T15:33:19.769Z,100154.59
2022-12-13T15:35:27.524Z,100155.03
2022-12-13T15:37:33.471Z,100162.09
2022-12-13T15:39:47.958Z,100152.25
2022-12-13T15:41:51.659Z,100161.75
2022-12-13T15:43:59.100Z,100153.91
2022-12-13T15:46:02.326Z,100150.69
2022-12-13T15:48:05.763Z,100147.06
2022-12-13T15:50:28.547Z,100141.63
2022-12-13T15:52:35.879Z,100161.41
2022-12-13T15:54:38.673Z,100153.22
2022-12-13T15:57:01.991Z,100151.09
2022-12-13T15:59:06.316Z,100144.38
2022-12-13T16:01:26.290Z,100149.91
2022-12-13T16:03:44.454Z,100150.53
2022-12-13T16:05:53.475Z,100157.53
2022-12-13T16:07:58.414Z,100157.97
2022-12-13T16:10:01.054Z,100157.53
2022-12-13T16:12:06.914Z,100160.84
2022-12-13T16:14:30.722Z,100141.56
2022-12-13T16:16:33.765Z,100152.34
2022-12-13T16:18:52.002Z,100159.88
2022-12-13T16:20:55.334Z,100162.19
2022-12-13T16:22:59.750Z,100152.16
2022-12-13T16:25:02.636Z,100160.22
2022-12-13T16:27:08.109Z,100153.63
2022-12-13T16:29:17.355Z,100163.25
2022-12-13T16:31:23.327Z,100154.53
2022-12-13T16:33:27.075Z,100148.69
2022-12-13T16:35:30.500Z,100159.44
2022-12-13T16:37:33.093Z,100160.41
2022-12-13T16:39:35.767Z,100162.72
2022-12-13T16:41:41.344Z,100160.31
2022-12-13T16:43:56.113Z,100170.72
2022-12-13T16:45:59.307Z,100162.16
2022-12-13T16:48:02.068Z,100163.13
2022-12-13T16:50:13.848Z,100158.16
2022-12-13T16:52:16.817Z,100162.59
2022-12-13T16:54:20.468Z,100168.16
2022-12-13T16:56:23.259Z,100164.94
2022-12-13T16:58:26.539Z,100168.91
2022-12-13T17:00:30.212Z,100159.50
2022-12-13T17:02:33.611Z,100161.47
2022-12-13T17:04:39.841Z,100169.19
2022-12-13T17:06:44.355Z,100170.50
2022-12-13T17:08:47.323Z,100161.97
2022-12-13T17:10:49.908Z,100169.97
2022-12-13T17:13:00.936Z,100173.34
2022-12-13T17:15:04.424Z,100185.00
2022-12-13T17:17:07.060Z,100190.81
2022-12-13T17:19:11.172Z,100178.50
2022-12-13T17:21:14.619Z,100190.81
2022-12-13T17:23:18.495Z,100179.78
2022-12-13T17:25:21.131Z,100182.81
2022-12-13T17:27:24.338Z,100175.28
2022-12-13T17:29:27.218Z,100176.66
2022-12-13T17:31:35.197Z,100177.38
2022-12-13T17:33:38.712Z,100176.41
2022-12-13T17:35:41.671Z,100176.84
2022-12-13T17:37:49.503Z,100178.56
2022-12-13T17:39:52.666Z,100173.19
2022-12-13T17:41:55.884Z,100178.69
2022-12-13T17:44:00.575Z,100181.91
2022-12-13T17:46:08.909Z,100181.25
2022-12-13T17:48:12.862Z,100178.50
2022-12-13T17:50:15.723Z,100169.56
2022-12-13T17:52:19.623Z,100174.28
2022-12-13T17:54:23.924Z,100170.31
2022-12-13T17:56:26.433Z,100171.34
2022-12-13T17:58:30.298Z,100174.19
2022-12-13T18:00:32.843Z,100169.50
2022-12-13T18:02:37.986Z,100169.66
2022-12-13T18:04:42.141Z,100174.81
2022-12-13T18:06:44.958Z,100176.94
2022-12-13T18:08:49.090Z,100174.63
2022-12-13T18:11:31.377Z,100173.44
2022-12-13T18:13:27.919Z,100171.69
2022-12-13T18:15:30.785Z,100176.09
2022-12-13T18:18:08.935Z,100165.91
2022-12-13T18:19:55.993Z,100161.50
2022-12-13T18:21:59.355Z,100179.13
2022-12-13T18:24:01.898Z,100172.97
2022-12-13T18:26:10.389Z,100171.50
2022-12-13T18:28:13.197Z,100172.06
2022-12-13T18:30:15.928Z,100177.13
2022-12-13T18:32:18.429Z,100167.44
2022-12-13T18:34:20.929Z,100162.13
2022-12-13T18:36:25.435Z,100161.41
2022-12-13T18:38:34.494Z,100152.66
2022-12-13T18:40:39.332Z,100148.50
2022-12-13T18:42:41.959Z,100165.38
2022-12-13T18:44:54.701Z,100154.59
2022-12-13T18:46:57.678Z,100157.72
2022-12-13T18:49:01.032Z,100148.63
2022-12-13T18:51:05.962Z,100150.09
2022-12-13T18:53:08.480Z,100139.97
2022-12-13T18:55:11.013Z,100151.94
2022-12-13T18:57:14.046Z,100148.31
2022-12-13T18:59:16.692Z,100161.59
2022-12-13T19:01:20.389Z,100156.72
2022-12-13T19:03:23.798Z,100149.25
2022-12-13T19:05:26.872Z,100175.09
2022-12-13T19:07:29.468Z,100167.66
2022-12-13T19:09:32.165Z,100169.22
2022-12-13T19:11:34.789Z,100172.16
2022-12-13T19:13:37.435Z,100174.19
2022-12-13T19:15:40.714Z,100177.66
2022-12-13T19:17:43.800Z,100167.72
2022-12-13T19:19:48.558Z,100167.66
2022-12-13T19:21:51.199Z,100176.03
2022-12-13T19:23:57.754Z,100176.03
2022-12-13T19:26:07.709Z,100182.63
2022-12-13T19:28:11.488Z,100177.50
2022-12-13T19:30:14.709Z,100179.78
2022-12-13T19:32:17.371Z,100183.03
2022-12-13T19:34:20.310Z,100179.22
2022-12-13T19:36:23.516Z,100179.59
2022-12-13T19:38:26.244Z,100174.16
2022-12-13T19:40:29.280Z,100170.94
2022-12-13T19:42:32.562Z,100184.38
2022-12-13T19:44:35.354Z,100167.38
2022-12-13T19:46:38.171Z,100181.72
2022-12-13T19:48:40.883Z,100175.19
2022-12-13T19:50:44.454Z,100186.22
2022-12-13T19:52:47.192Z,100174.00
2022-12-13T19:54:49.853Z,100176.94
2022-12-13T19:56:53.524Z,100180.16
2022-12-13T19:58:56.830Z,100176.00
2022-12-13T20:01:03.970Z,100174.16
2022-12-13T20:03:06.799Z,100180.09
2022-12-13T20:05:09.559Z,100175.75
2022-12-13T20:07:12.969Z,100175.44
2022-12-13T20:09:15.642Z,100173.19
2022-12-13T20:11:21.992Z,100187.94
2022-12-13T20:13:25.032Z,100179.78
2022-12-13T20:15:28.540Z,100190.81
2022-12-13T20:17:32.084Z,100189.31
2022-12-13T20:19:34.757Z,100183.53
2022-12-13T20:21:37.330Z,100179.22
2022-12-13T20:23:39.916Z,100180.22
2022-12-13T20:25:42.596Z,100186.56
2022-12-13T20:27:45.708Z,100179.53
2022-12-13T20:29:49.533Z,100181.66
2022-12-13T20:31:53.943Z,100176.16
2022-12-13T20:34:02.854Z,100183.19
2022-12-13T20:36:24.278Z,100182.16
2022-12-13T20:38:27.534Z,100179.88
2022-12-13T20:40:30.116Z,100177.03
2022-12-13T20:42:33.505Z,100178.94
2022-12-13T20:44:36.239Z,100180.84
2022-12-13T20:46:39.494Z,100174.72
2022-12-13T20:48:44.967Z,100176.47
2022-12-13T20:50:48.839Z,100172.44
2022-12-13T20:52:52.383Z,100165.47
2022-12-13T20:54:55.721Z,100154.88
2022-12-13T20:56:58.359Z,100168.94
2022-12-13T20:59:05.988Z,100165.47
2022-12-13T21:01:14.321Z,100172.81
2022-12-13T21:03:17.182Z,100153.06
2022-12-13T21:05:21.036Z,100163.13
2022-12-13T21:07:43.706Z,100159.00
2022-12-13T21:09:50.933Z,100167.66
2022-12-13T21:11:53.511Z,100166.66
2022-12-13T21:14:07.916Z,100159.00
2022-12-13T21:16:11.574Z,100157.06
2022-12-13T21:18:14.295Z,100168.06
2022-12-13T21:20:17.003Z,100169.81
2022-12-13T21:22:21.478Z,100171.84
2022-12-13T21:24:26.553Z,100165.03
2022-12-13T21:26:34.877Z,100171.91
2022-12-13T21:28:38.195Z,100172.44
2022-12-13T21:30:40.708Z,100174.81
2022-12-13T21:32:45.297Z,100167.81
2022-12-13T21:34:50.996Z,100170.03
2022-12-13T21:36:53.584Z,100174.88
2022-12-13T21:39:05.493Z,100161.63
2022-12-13T21:41:09.447Z,100161.63
2022-12-13T21:43:12.230Z,100162.66
2022-12-13T21:45:15.378Z,100149.69
2022-12-13T21:47:17.950Z,100156.47
2022-12-13T21:49:20.583Z,100151.34
2022-12-13T21:51:24.645Z,100151.03
2022-12-13T21:53:27.547Z,100145.50
2022-12-13T21:55:38.727Z,100151.81
2022-12-13T21:58:17.374Z,100153.81
2022-12-13T22:00:20.114Z,100140.69
2022-12-13T22:02:22.718Z,100143.53
2022-12-13T22:04:25.314Z,100137.03
2022-12-13T22:06:27.875Z,100143.25
2022-12-13T22:08:30.498Z,100133.94
2022-12-13T22:10:33.281Z,100135.13
2022-12-13T22:12:41.090Z,100137.78
2022-12-13T22:14:43.724Z,100128.63
2022-12-13T22:16:46.524Z,100128.47
2022-12-13T22:18:49.437Z,100116.63
2022-12-13T22:20:58.608Z,100124.38
2022-12-13T22:23:02.076Z,100128.66
2022-12-13T22:25:05.618Z,100126.41
2022-12-13T22:27:08.243Z,100113.63
2022-12-13T22:29:14.173Z,100122.63
2022-12-13T22:31:17.614Z,100113.84
2022-12-13T22:33:20.334Z,100125.00
2022-12-13T22:35:22.880Z,100117.28
2022-12-13T22:37:25.807Z,100112.91
2022-12-13T22:39:28.464Z,100118.91
2022-12-13T22:41:31.087Z,100110.81
2022-12-13T22:43:35.673Z,100118.34
2022-12-13T22:45:38.472Z,100105.28
2022-12-13T22:47:41.072Z,100109.56
2022-12-13T22:49:43.663Z,100114.78
2022-12-13T22:51:46.796Z,100094.91
2022-12-13T22:53:49.453Z,100105.53
2022-12-13T22:55:52.001Z,100100.75
2022-12-13T22:57:54.576Z,100096.16
2022-12-13T22:59:57.160Z,100099.31
2022-12-13T23:02:02.498Z,100100.97
2022-12-13T23:04:07.312Z,100101.50
2022-12-13T23:06:15.968Z,100093.69
2022-12-13T23:08:18.637Z,100097.06
2022-12-13T23:10:41.417Z,100091.09
2022-12-13T23:13:02.151Z,100082.81
2022-12-13T23:15:05.766Z,100091.47
2022-12-13T23:17:08.643Z,100083.69
2022-12-13T23:19:40.992Z,100081.84
2022-12-13T23:21:37.769Z,100084.16
2022-12-13T23:23:40.609Z,100086.44
2022-12-13T23:25:43.282Z,100078.47
2022-12-13T23:27:51.474Z,100091.44
2022-12-13T23:29:54.020Z,100079.44
2022-12-13T23:31:56.829Z,100087.75
2022-12-13T23:33:59.437Z,100083.97
2022-12-13T23:36:09.586Z,100078.38
2022-12-13T23:38:12.490Z,100076.53
2022-12-13T23:40:16.034Z,100076.69
2022-12-13T23:42:18.594Z,100068.41
2022-12-13T23:44:21.203Z,100069.06
2022-12-13T23:46:29.136Z,100064.59
2022-12-13T23:48:35.125Z,100051.28
2022-12-13T23:50:37.694Z,100051.28
2022-12-13T23:52:40.453Z,100045.97
2022-12-13T23:54:43.033Z,100039.56
2022-12-13T23:56:46.129Z,100037.72
2022-12-13T23:58:48.805Z,100027.28
